sensor_id;sensor_type;location;lat;lon;timestamp;temperature;humidity
34877;DHT22;21086;44.780;17.194;2022-11-20T00:03:44;9.30;99.90
34877;DHT22;21086;44.780;17.194;2022-11-20T00:06:14;9.30;99.90
34877;DHT22;21086;44.780;17.194;2022-11-20T00:08:46;9.40;99.90
34877;DHT22;21086;44.780;17.194;2022-11-20T00:11:16;9.40;99.90
34877;DHT22;21086;44.780;17.194;2022-11-20T00:13:44;9.50;99.90
34877;DHT22;21086;44.780;17.194;2022-11-20T00:16:13;9.50;99.90
34877;DHT22;21086;44.780;17.194;2022-11-20T00:18:41;9.60;99.90
34877;DHT22;21086;44.780;17.194;2022-11-20T00:21:35;9.60;99.90
34877;DHT22;21086;44.780;17.194;2022-11-20T00:24:01;9.70;99.90
34877;DHT22;21086;44.780;17.194;2022-11-20T00:26:29;9.70;99.90
34877;DHT22;21086;44.780;17.194;2022-11-20T00:29:00;9.70;99.90
34877;DHT22;21086;44.780;17.194;2022-11-20T00:31:28;9.70;99.90
34877;DHT22;21086;44.780;17.194;2022-11-20T00:33:55;9.60;99.90
34877;DHT22;21086;44.780;17.194;2022-11-20T00:36:24;9.60;99.90
34877;DHT22;21086;44.780;17.194;2022-11-20T00:38:55;9.60;99.90
34877;DHT22;21086;44.780;17.194;2022-11-20T00:41:23;9.60;99.90
34877;DHT22;21086;44.780;17.194;2022-11-20T00:43:55;9.70;99.90
34877;DHT22;21086;44.780;17.194;2022-11-20T00:46:24;9.60;99.90
34877;DHT22;21086;44.780;17.194;2022-11-20T00:48:51;9.60;99.90
34877;DHT22;21086;44.780;17.194;2022-11-20T00:51:21;9.60;99.90
34877;DHT22;21086;44.780;17.194;2022-11-20T00:53:48;9.40;99.90
34877;DHT22;21086;44.780;17.194;2022-11-20T00:56:18;9.30;99.90
34877;DHT22;21086;44.780;17.194;2022-11-20T00:58:47;9.30;99.90
34877;DHT22;21086;44.780;17.194;2022-11-20T01:01:16;9.30;99.90
34877;DHT22;21086;44.780;17.194;2022-11-20T01:03:45;9.20;99.90
34877;DHT22;21086;44.780;17.194;2022-11-20T01:06:16;9.20;99.90
34877;DHT22;21086;44.780;17.194;2022-11-20T01:08:44;9.20;99.90
34877;DHT22;21086;44.780;17.194;2022-11-20T01:11:15;9.20;99.90
34877;DHT22;21086;44.780;17.194;2022-11-20T01:13:43;9.30;99.90
34877;DHT22;21086;44.780;17.194;2022-11-20T01:16:13;9.40;99.90
34877;DHT22;21086;44.780;17.194;2022-11-20T01:18:43;9.40;99.90
34877;DHT22;21086;44.780;17.194;2022-11-20T01:21:24;9.50;99.90
34877;DHT22;21086;44.780;17.194;2022-11-20T01:23:52;9.60;99.90
34877;DHT22;21086;44.780;17.194;2022-11-20T01:26:22;9.50;99.90
34877;DHT22;21086;44.780;17.194;2022-11-20T01:28:49;9.50;99.90
34877;DHT22;21086;44.780;17.194;2022-11-20T01:31:22;9.60;99.90
34877;DHT22;21086;44.780;17.194;2022-11-20T01:33:52;9.60;99.90
34877;DHT22;21086;44.780;17.194;2022-11-20T01:36:21;9.50;99.90
34877;DHT22;21086;44.780;17.194;2022-11-20T01:38:53;9.60;99.90
34877;DHT22;21086;44.780;17.194;2022-11-20T01:41:21;9.60;99.90
34877;DHT22;21086;44.780;17.194;2022-11-20T01:44:09;9.60;99.90
34877;DHT22;21086;44.780;17.194;2022-11-20T01:46:38;9.50;99.90
34877;DHT22;21086;44.780;17.194;2022-11-20T01:49:23;9.60;99.90
34877;DHT22;21086;44.780;17.194;2022-11-20T01:52:03;9.60;99.90
34877;DHT22;21086;44.780;17.194;2022-11-20T01:54:35;9.30;99.90
34877;DHT22;21086;44.780;17.194;2022-11-20T01:57:06;9.30;99.90
34877;DHT22;21086;44.780;17.194;2022-11-20T01:59:35;9.20;99.90
34877;DHT22;21086;44.780;17.194;2022-11-20T02:02:04;9.20;99.90
34877;DHT22;21086;44.780;17.194;2022-11-20T02:04:31;9.20;99.90
34877;DHT22;21086;44.780;17.194;2022-11-20T02:07:02;9.30;99.90
34877;DHT22;21086;44.780;17.194;2022-11-20T02:09:31;9.30;99.90
34877;DHT22;21086;44.780;17.194;2022-11-20T02:11:59;9.40;99.90
34877;DHT22;21086;44.780;17.194;2022-11-20T02:14:27;9.40;99.90
34877;DHT22;21086;44.780;17.194;2022-11-20T02:16:55;9.60;99.90
34877;DHT22;21086;44.780;17.194;2022-11-20T02:19:26;9.60;99.90
34877;DHT22;21086;44.780;17.194;2022-11-20T02:22:21;9.60;99.90
34877;DHT22;21086;44.780;17.194;2022-11-20T02:24:50;9.60;99.90
34877;DHT22;21086;44.780;17.194;2022-11-20T02:27:18;9.60;99.90
34877;DHT22;21086;44.780;17.194;2022-11-20T02:29:49;9.60;99.90
34877;DHT22;21086;44.780;17.194;2022-11-20T02:34:55;9.70;99.90
34877;DHT22;21086;44.780;17.194;2022-11-20T02:37:29;9.60;99.90
34877;DHT22;21086;44.780;17.194;2022-11-20T02:39:57;9.50;99.90
34877;DHT22;21086;44.780;17.194;2022-11-20T02:42:24;9.40;99.90
34877;DHT22;21086;44.780;17.194;2022-11-20T02:44:51;9.30;99.90
34877;DHT22;21086;44.780;17.194;2022-11-20T02:47:18;9.10;99.90
34877;DHT22;21086;44.780;17.194;2022-11-20T02:49:45;9.10;99.90
34877;DHT22;21086;44.780;17.194;2022-11-20T02:52:12;9.10;99.90
34877;DHT22;21086;44.780;17.194;2022-11-20T02:54:39;9.20;99.90
34877;DHT22;21086;44.780;17.194;2022-11-20T02:57:06;9.00;99.90
34877;DHT22;21086;44.780;17.194;2022-11-20T02:59:33;9.00;99.90
34877;DHT22;21086;44.780;17.194;2022-11-20T03:02:00;9.10;99.90
34877;DHT22;21086;44.780;17.194;2022-11-20T03:04:27;9.10;99.90
34877;DHT22;21086;44.780;17.194;2022-11-20T03:06:54;9.10;99.90
34877;DHT22;21086;44.780;17.194;2022-11-20T03:09:21;8.90;99.90
34877;DHT22;21086;44.780;17.194;2022-11-20T03:11:49;9.00;99.90
34877;DHT22;21086;44.780;17.194;2022-11-20T03:14:15;8.90;99.90
34877;DHT22;21086;44.780;17.194;2022-11-20T03:16:43;8.80;99.90
34877;DHT22;21086;44.780;17.194;2022-11-20T03:19:11;8.70;99.90
34877;DHT22;21086;44.780;17.194;2022-11-20T03:21:39;9.00;99.90
34877;DHT22;21086;44.780;17.194;2022-11-20T03:24:06;8.90;99.90
34877;DHT22;21086;44.780;17.194;2022-11-20T03:26:33;8.80;99.90
34877;DHT22;21086;44.780;17.194;2022-11-20T03:29:02;8.90;99.90
34877;DHT22;21086;44.780;17.194;2022-11-20T03:31:33;8.80;99.90
34877;DHT22;21086;44.780;17.194;2022-11-20T03:34:03;8.70;99.90
34877;DHT22;21086;44.780;17.194;2022-11-20T03:36:30;8.80;99.90
34877;DHT22;21086;44.780;17.194;2022-11-20T03:38:57;8.80;99.90
34877;DHT22;21086;44.780;17.194;2022-11-20T03:41:26;8.90;99.90
34877;DHT22;21086;44.780;17.194;2022-11-20T03:44:00;8.90;99.90
34877;DHT22;21086;44.780;17.194;2022-11-20T03:46:27;8.80;99.90
34877;DHT22;21086;44.780;17.194;2022-11-20T03:48:55;8.70;99.90
34877;DHT22;21086;44.780;17.194;2022-11-20T03:51:27;8.80;99.90
34877;DHT22;21086;44.780;17.194;2022-11-20T03:53:58;8.70;99.90
34877;DHT22;21086;44.780;17.194;2022-11-20T03:56:27;8.70;99.90
34877;DHT22;21086;44.780;17.194;2022-11-20T03:58:55;8.70;99.90
34877;DHT22;21086;44.780;17.194;2022-11-20T04:01:25;8.70;99.90
34877;DHT22;21086;44.780;17.194;2022-11-20T04:03:54;8.70;99.90
34877;DHT22;21086;44.780;17.194;2022-11-20T04:06:34;8.80;99.90
34877;DHT22;21086;44.780;17.194;2022-11-20T04:09:02;8.80;99.90
34877;DHT22;21086;44.780;17.194;2022-11-20T04:11:31;8.80;99.90
34877;DHT22;21086;44.780;17.194;2022-11-20T04:14:03;8.80;99.90
34877;DHT22;21086;44.780;17.194;2022-11-20T04:16:34;8.80;99.90
34877;DHT22;21086;44.780;17.194;2022-11-20T04:19:04;8.80;99.90
34877;DHT22;21086;44.780;17.194;2022-11-20T04:21:31;8.80;99.90
34877;DHT22;21086;44.780;17.194;2022-11-20T04:23:58;8.70;99.90
34877;DHT22;21086;44.780;17.194;2022-11-20T04:26:27;8.70;99.90
34877;DHT22;21086;44.780;17.194;2022-11-20T04:28:54;8.80;99.90
34877;DHT22;21086;44.780;17.194;2022-11-20T04:31:24;8.70;99.90
34877;DHT22;21086;44.780;17.194;2022-11-20T04:33:52;9.30;99.90
34877;DHT22;21086;44.780;17.194;2022-11-20T04:36:23;8.60;99.90
34877;DHT22;21086;44.780;17.194;2022-11-20T04:38:55;8.40;99.90
34877;DHT22;21086;44.780;17.194;2022-11-20T04:41:25;8.40;99.90
34877;DHT22;21086;44.780;17.194;2022-11-20T04:43:56;10.00;99.90
34877;DHT22;21086;44.780;17.194;2022-11-20T04:46:27;8.30;99.90
34877;DHT22;21086;44.780;17.194;2022-11-20T04:48:54;8.40;99.90
34877;DHT22;21086;44.780;17.194;2022-11-20T04:51:21;8.50;99.90
34877;DHT22;21086;44.780;17.194;2022-11-20T04:53:48;8.60;99.90
34877;DHT22;21086;44.780;17.194;2022-11-20T04:56:15;8.80;99.90
34877;DHT22;21086;44.780;17.194;2022-11-20T04:58:42;8.70;99.90
34877;DHT22;21086;44.780;17.194;2022-11-20T05:01:11;8.70;99.90
34877;DHT22;21086;44.780;17.194;2022-11-20T05:03:42;8.70;99.90
34877;DHT22;21086;44.780;17.194;2022-11-20T05:06:12;8.70;99.90
34877;DHT22;21086;44.780;17.194;2022-11-20T05:08:39;8.80;99.90
34877;DHT22;21086;44.780;17.194;2022-11-20T05:11:11;8.80;99.90
34877;DHT22;21086;44.780;17.194;2022-11-20T05:13:39;8.90;99.90
34877;DHT22;21086;44.780;17.194;2022-11-20T05:16:13;8.80;99.90
34877;DHT22;21086;44.780;17.194;2022-11-20T05:18:41;8.70;99.90
34877;DHT22;21086;44.780;17.194;2022-11-20T05:21:10;8.70;99.90
34877;DHT22;21086;44.780;17.194;2022-11-20T05:23:37;8.80;99.90
34877;DHT22;21086;44.780;17.194;2022-11-20T05:26:07;8.80;99.90
34877;DHT22;21086;44.780;17.194;2022-11-20T05:28:34;8.80;99.90
34877;DHT22;21086;44.780;17.194;2022-11-20T05:31:21;8.80;99.90
34877;DHT22;21086;44.780;17.194;2022-11-20T05:33:55;8.80;99.90
34877;DHT22;21086;44.780;17.194;2022-11-20T05:36:22;8.90;99.90
34877;DHT22;21086;44.780;17.194;2022-11-20T05:38:49;9.00;99.90
34877;DHT22;21086;44.780;17.194;2022-11-20T05:41:19;9.00;99.90
34877;DHT22;21086;44.780;17.194;2022-11-20T05:43:47;9.10;99.90
34877;DHT22;21086;44.780;17.194;2022-11-20T05:46:16;8.90;99.90
34877;DHT22;21086;44.780;17.194;2022-11-20T05:48:44;9.00;99.90
34877;DHT22;21086;44.780;17.194;2022-11-20T05:51:14;9.10;99.90
34877;DHT22;21086;44.780;17.194;2022-11-20T05:53:41;9.10;99.90
34877;DHT22;21086;44.780;17.194;2022-11-20T05:56:19;9.10;99.90
34877;DHT22;21086;44.780;17.194;2022-11-20T05:58:46;8.90;99.90
34877;DHT22;21086;44.780;17.194;2022-11-20T06:01:21;8.80;99.90
34877;DHT22;21086;44.780;17.194;2022-11-20T06:03:49;8.80;99.90
34877;DHT22;21086;44.780;17.194;2022-11-20T06:06:18;9.00;99.90
34877;DHT22;21086;44.780;17.194;2022-11-20T06:08:45;9.00;99.90
34877;DHT22;21086;44.780;17.194;2022-11-20T06:11:14;8.90;99.90
34877;DHT22;21086;44.780;17.194;2022-11-20T06:13:41;8.70;99.90
34877;DHT22;21086;44.780;17.194;2022-11-20T06:16:09;8.60;99.90
34877;DHT22;21086;44.780;17.194;2022-11-20T06:18:37;8.60;99.90
34877;DHT22;21086;44.780;17.194;2022-11-20T06:21:10;8.50;99.90
34877;DHT22;21086;44.780;17.194;2022-11-20T06:23:37;8.40;99.90
34877;DHT22;21086;44.780;17.194;2022-11-20T06:26:05;8.60;99.90
34877;DHT22;21086;44.780;17.194;2022-11-20T06:28:33;8.40;99.90
34877;DHT22;21086;44.780;17.194;2022-11-20T06:31:01;8.50;99.90
34877;DHT22;21086;44.780;17.194;2022-11-20T06:33:28;8.50;99.90
34877;DHT22;21086;44.780;17.194;2022-11-20T06:35:59;8.50;99.90
34877;DHT22;21086;44.780;17.194;2022-11-20T06:38:34;8.60;99.90
34877;DHT22;21086;44.780;17.194;2022-11-20T06:41:03;8.40;99.90
34877;DHT22;21086;44.780;17.194;2022-11-20T06:43:30;8.50;99.90
34877;DHT22;21086;44.780;17.194;2022-11-20T06:45:58;8.50;99.90
34877;DHT22;21086;44.780;17.194;2022-11-20T06:48:26;8.60;99.90
34877;DHT22;21086;44.780;17.194;2022-11-20T06:50:54;8.70;99.90
34877;DHT22;21086;44.780;17.194;2022-11-20T06:53:22;8.70;99.90
34877;DHT22;21086;44.780;17.194;2022-11-20T06:55:50;8.80;99.90
34877;DHT22;21086;44.780;17.194;2022-11-20T06:58:18;8.80;99.90
34877;DHT22;21086;44.780;17.194;2022-11-20T07:00:44;8.90;99.90
34877;DHT22;21086;44.780;17.194;2022-11-20T07:03:12;8.90;99.90
34877;DHT22;21086;44.780;17.194;2022-11-20T07:05:39;8.80;99.90
34877;DHT22;21086;44.780;17.194;2022-11-20T07:08:07;8.90;99.90
34877;DHT22;21086;44.780;17.194;2022-11-20T07:10:34;8.90;99.90
34877;DHT22;21086;44.780;17.194;2022-11-20T07:13:01;8.90;99.90
34877;DHT22;21086;44.780;17.194;2022-11-20T07:15:29;9.00;99.90
34877;DHT22;21086;44.780;17.194;2022-11-20T07:17:59;9.00;99.90
34877;DHT22;21086;44.780;17.194;2022-11-20T07:20:26;9.10;99.90
34877;DHT22;21086;44.780;17.194;2022-11-20T07:22:54;9.10;99.90
34877;DHT22;21086;44.780;17.194;2022-11-20T07:25:24;9.10;99.90
34877;DHT22;21086;44.780;17.194;2022-11-20T07:27:52;9.20;99.90
34877;DHT22;21086;44.780;17.194;2022-11-20T07:30:19;9.30;99.90
34877;DHT22;21086;44.780;17.194;2022-11-20T07:32:47;9.30;99.90
34877;DHT22;21086;44.780;17.194;2022-11-20T07:35:14;9.40;99.90
34877;DHT22;21086;44.780;17.194;2022-11-20T07:37:41;9.40;99.90
34877;DHT22;21086;44.780;17.194;2022-11-20T07:40:08;9.50;99.90
34877;DHT22;21086;44.780;17.194;2022-11-20T07:42:35;9.50;99.90
34877;DHT22;21086;44.780;17.194;2022-11-20T07:45:02;9.50;99.90
34877;DHT22;21086;44.780;17.194;2022-11-20T07:47:35;9.40;99.90
34877;DHT22;21086;44.780;17.194;2022-11-20T07:50:02;9.40;99.90
34877;DHT22;21086;44.780;17.194;2022-11-20T07:52:29;9.30;99.90
34877;DHT22;21086;44.780;17.194;2022-11-20T07:54:56;9.40;99.90
34877;DHT22;21086;44.780;17.194;2022-11-20T07:57:23;9.40;99.90
34877;DHT22;21086;44.780;17.194;2022-11-20T07:59:54;9.60;99.90
34877;DHT22;21086;44.780;17.194;2022-11-20T08:02:20;9.50;99.90
34877;DHT22;21086;44.780;17.194;2022-11-20T08:04:47;9.40;99.90
34877;DHT22;21086;44.780;17.194;2022-11-20T08:07:14;9.40;99.90
34877;DHT22;21086;44.780;17.194;2022-11-20T08:09:42;9.50;99.90
34877;DHT22;21086;44.780;17.194;2022-11-20T08:12:20;9.40;99.90
34877;DHT22;21086;44.780;17.194;2022-11-20T08:15:06;9.50;99.90
34877;DHT22;21086;44.780;17.194;2022-11-20T08:17:39;9.40;99.90
34877;DHT22;21086;44.780;17.194;2022-11-20T08:20:06;9.30;99.90
34877;DHT22;21086;44.780;17.194;2022-11-20T08:22:33;9.30;99.90
34877;DHT22;21086;44.780;17.194;2022-11-20T08:25:00;9.30;99.90
34877;DHT22;21086;44.780;17.194;2022-11-20T08:27:28;9.40;99.90
34877;DHT22;21086;44.780;17.194;2022-11-20T08:29:55;9.40;99.90
34877;DHT22;21086;44.780;17.194;2022-11-20T08:32:22;9.40;99.90
34877;DHT22;21086;44.780;17.194;2022-11-20T08:34:48;9.30;99.90
34877;DHT22;21086;44.780;17.194;2022-11-20T08:37:15;9.20;99.90
34877;DHT22;21086;44.780;17.194;2022-11-20T08:39:42;9.20;99.90
34877;DHT22;21086;44.780;17.194;2022-11-20T08:42:09;9.30;99.90
34877;DHT22;21086;44.780;17.194;2022-11-20T08:44:36;9.40;99.90
34877;DHT22;21086;44.780;17.194;2022-11-20T08:47:03;9.40;99.90
34877;DHT22;21086;44.780;17.194;2022-11-20T08:49:30;9.50;99.90
34877;DHT22;21086;44.780;17.194;2022-11-20T08:51:57;9.50;99.90
34877;DHT22;21086;44.780;17.194;2022-11-20T08:54:23;9.60;99.90
34877;DHT22;21086;44.780;17.194;2022-11-20T08:56:50;9.50;99.90
34877;DHT22;21086;44.780;17.194;2022-11-20T08:59:17;9.50;99.90
34877;DHT22;21086;44.780;17.194;2022-11-20T09:02:04;9.60;99.90
34877;DHT22;21086;44.780;17.194;2022-11-20T09:04:31;9.60;99.90
34877;DHT22;21086;44.780;17.194;2022-11-20T09:07:00;9.70;99.90
34877;DHT22;21086;44.780;17.194;2022-11-20T09:09:27;9.80;99.90
34877;DHT22;21086;44.780;17.194;2022-11-20T09:11:53;9.90;99.90
34877;DHT22;21086;44.780;17.194;2022-11-20T09:14:21;9.90;99.90
34877;DHT22;21086;44.780;17.194;2022-11-20T09:16:47;10.00;99.90
34877;DHT22;21086;44.780;17.194;2022-11-20T09:19:14;10.20;99.90
34877;DHT22;21086;44.780;17.194;2022-11-20T09:21:53;10.20;99.90
34877;DHT22;21086;44.780;17.194;2022-11-20T09:29:56;10.10;99.90
34877;DHT22;21086;44.780;17.194;2022-11-20T09:32:23;10.20;99.90
34877;DHT22;21086;44.780;17.194;2022-11-20T09:34:50;10.20;99.90
34877;DHT22;21086;44.780;17.194;2022-11-20T09:37:17;10.10;99.90
34877;DHT22;21086;44.780;17.194;2022-11-20T09:39:44;10.00;99.90
34877;DHT22;21086;44.780;17.194;2022-11-20T09:42:17;10.00;99.90
34877;DHT22;21086;44.780;17.194;2022-11-20T09:56:14;10.00;99.90
34877;DHT22;21086;44.780;17.194;2022-11-20T09:58:52;10.00;99.90
34877;DHT22;21086;44.780;17.194;2022-11-20T10:01:30;10.10;99.90
34877;DHT22;21086;44.780;17.194;2022-11-20T10:04:00;10.10;99.90
34877;DHT22;21086;44.780;17.194;2022-11-20T10:06:34;9.90;99.90
34877;DHT22;21086;44.780;17.194;2022-11-20T10:09:29;9.90;99.90
34877;DHT22;21086;44.780;17.194;2022-11-20T10:12:22;9.90;99.90
34877;DHT22;21086;44.780;17.194;2022-11-20T10:18:22;9.90;99.90
34877;DHT22;21086;44.780;17.194;2022-11-20T10:21:08;10.10;99.90
34877;DHT22;21086;44.780;17.194;2022-11-20T10:27:35;10.00;99.90
34877;DHT22;21086;44.780;17.194;2022-11-20T10:29:41;10.00;99.90
34877;DHT22;21086;44.780;17.194;2022-11-20T10:32:20;9.90;99.90
34877;DHT22;21086;44.780;17.194;2022-11-20T10:35:32;8.70;99.90
34877;DHT22;21086;44.780;17.194;2022-11-20T10:38:17;9.80;99.90
34877;DHT22;21086;44.780;17.194;2022-11-20T10:40:51;9.80;99.90
34877;DHT22;21086;44.780;17.194;2022-11-20T10:43:21;9.80;99.90
34877;DHT22;21086;44.780;17.194;2022-11-20T10:48:28;9.80;99.90
34877;DHT22;21086;44.780;17.194;2022-11-20T10:56:52;10.00;99.90
34877;DHT22;21086;44.780;17.194;2022-11-20T11:01:59;10.00;99.90
34877;DHT22;21086;44.780;17.194;2022-11-20T11:04:40;10.00;99.90
34877;DHT22;21086;44.780;17.194;2022-11-20T11:07:27;9.40;99.90
34877;DHT22;21086;44.780;17.194;2022-11-20T11:09:56;10.00;99.90
34877;DHT22;21086;44.780;17.194;2022-11-20T11:12:25;10.10;99.90
34877;DHT22;21086;44.780;17.194;2022-11-20T11:15:11;10.00;99.90
34877;DHT22;21086;44.780;17.194;2022-11-20T11:17:50;9.50;99.90
34877;DHT22;21086;44.780;17.194;2022-11-20T11:20:27;9.90;99.90
34877;DHT22;21086;44.780;17.194;2022-11-20T11:22:59;10.00;99.90
34877;DHT22;21086;44.780;17.194;2022-11-20T11:30:56;9.90;99.90
34877;DHT22;21086;44.780;17.194;2022-11-20T11:35:59;10.00;99.90
34877;DHT22;21086;44.780;17.194;2022-11-20T11:38:35;10.00;99.90
34877;DHT22;21086;44.780;17.194;2022-11-20T11:41:23;10.00;99.90
34877;DHT22;21086;44.780;17.194;2022-11-20T11:43:55;10.30;99.90
34877;DHT22;21086;44.780;17.194;2022-11-20T11:46:53;10.20;99.90
34877;DHT22;21086;44.780;17.194;2022-11-20T11:49:21;10.30;99.90
34877;DHT22;21086;44.780;17.194;2022-11-20T11:57:17;11.60;99.90
34877;DHT22;21086;44.780;17.194;2022-11-20T12:00:04;10.40;99.90
34877;DHT22;21086;44.780;17.194;2022-11-20T12:02:40;10.40;99.90
34877;DHT22;21086;44.780;17.194;2022-11-20T12:05:48;10.40;99.90
34877;DHT22;21086;44.780;17.194;2022-11-20T12:08:37;10.40;99.90
34877;DHT22;21086;44.780;17.194;2022-11-20T12:16:38;10.50;99.90
34877;DHT22;21086;44.780;17.194;2022-11-20T12:19:13;10.50;99.90
34877;DHT22;21086;44.780;17.194;2022-11-20T12:27:09;10.50;99.90
34877;DHT22;21086;44.780;17.194;2022-11-20T12:30:01;10.50;99.90
34877;DHT22;21086;44.780;17.194;2022-11-20T12:47:25;10.60;99.90
34877;DHT22;21086;44.780;17.194;2022-11-20T12:53:06;10.40;99.90
34877;DHT22;21086;44.780;17.194;2022-11-20T12:56:12;10.40;99.90
34877;DHT22;21086;44.780;17.194;2022-11-20T12:59:18;10.40;99.90
34877;DHT22;21086;44.780;17.194;2022-11-20T13:01:58;10.40;99.90
34877;DHT22;21086;44.780;17.194;2022-11-20T13:04:51;10.40;99.90
34877;DHT22;21086;44.780;17.194;2022-11-20T13:07:24;10.40;99.90
34877;DHT22;21086;44.780;17.194;2022-11-20T13:09:53;10.40;99.90
34877;DHT22;21086;44.780;17.194;2022-11-20T13:12:53;10.30;99.90
34877;DHT22;21086;44.780;17.194;2022-11-20T13:18:15;10.30;99.90
34877;DHT22;21086;44.780;17.194;2022-11-20T13:20:44;10.20;99.90
34877;DHT22;21086;44.780;17.194;2022-11-20T13:23:26;10.20;99.90
34877;DHT22;21086;44.780;17.194;2022-11-20T13:26:15;10.30;99.90
34877;DHT22;21086;44.780;17.194;2022-11-20T13:28:43;10.30;99.90
34877;DHT22;21086;44.780;17.194;2022-11-20T13:31:32;10.30;99.90
34877;DHT22;21086;44.780;17.194;2022-11-20T13:34:03;10.30;99.90
34877;DHT22;21086;44.780;17.194;2022-11-20T13:36:31;10.40;99.90
34877;DHT22;21086;44.780;17.194;2022-11-20T13:38:59;10.40;99.90
34877;DHT22;21086;44.780;17.194;2022-11-20T13:41:35;10.30;99.90
34877;DHT22;21086;44.780;17.194;2022-11-20T13:46:53;9.90;99.90
34877;DHT22;21086;44.780;17.194;2022-11-20T13:49:37;9.90;99.90
34877;DHT22;21086;44.780;17.194;2022-11-20T14:01:16;10.10;99.90
34877;DHT22;21086;44.780;17.194;2022-11-20T14:03:47;10.00;99.90
34877;DHT22;21086;44.780;17.194;2022-11-20T14:06:39;10.10;99.90
34877;DHT22;21086;44.780;17.194;2022-11-20T14:09:12;10.00;99.90
34877;DHT22;21086;44.780;17.194;2022-11-20T14:11:49;10.00;99.90
34877;DHT22;21086;44.780;17.194;2022-11-20T14:14:19;10.00;99.90
34877;DHT22;21086;44.780;17.194;2022-11-20T14:16:48;10.00;99.90
34877;DHT22;21086;44.780;17.194;2022-11-20T14:21:54;10.10;99.90
34877;DHT22;21086;44.780;17.194;2022-11-20T14:24:24;10.00;99.90
34877;DHT22;21086;44.780;17.194;2022-11-20T14:26:52;9.90;99.90
34877;DHT22;21086;44.780;17.194;2022-11-20T14:29:23;9.80;99.90
34877;DHT22;21086;44.780;17.194;2022-11-20T14:31:54;9.80;99.90
34877;DHT22;21086;44.780;17.194;2022-11-20T14:34:25;9.90;99.90
34877;DHT22;21086;44.780;17.194;2022-11-20T14:37:03;9.80;99.90
34877;DHT22;21086;44.780;17.194;2022-11-20T14:39:33;9.70;99.90
34877;DHT22;21086;44.780;17.194;2022-11-20T14:42:01;9.70;99.90
34877;DHT22;21086;44.780;17.194;2022-11-20T14:44:33;9.70;99.90
34877;DHT22;21086;44.780;17.194;2022-11-20T14:47:02;9.70;99.90
34877;DHT22;21086;44.780;17.194;2022-11-20T14:49:34;9.60;99.90
34877;DHT22;21086;44.780;17.194;2022-11-20T14:52:15;9.50;99.90
34877;DHT22;21086;44.780;17.194;2022-11-20T14:54:50;9.50;99.90
34877;DHT22;21086;44.780;17.194;2022-11-20T14:57:30;9.50;99.90
34877;DHT22;21086;44.780;17.194;2022-11-20T15:02:32;9.30;99.90
34877;DHT22;21086;44.780;17.194;2022-11-20T15:05:01;9.40;99.90
34877;DHT22;21086;44.780;17.194;2022-11-20T15:07:33;9.40;99.90
34877;DHT22;21086;44.780;17.194;2022-11-20T15:10:09;9.30;99.90
34877;DHT22;21086;44.780;17.194;2022-11-20T15:13:02;9.20;99.90
34877;DHT22;21086;44.780;17.194;2022-11-20T15:15:49;9.20;99.90
34877;DHT22;21086;44.780;17.194;2022-11-20T15:18:30;9.40;99.90
34877;DHT22;21086;44.780;17.194;2022-11-20T15:21:02;9.50;99.90
34877;DHT22;21086;44.780;17.194;2022-11-20T15:23:30;9.50;99.90
34877;DHT22;21086;44.780;17.194;2022-11-20T15:25:57;9.60;99.90
34877;DHT22;21086;44.780;17.194;2022-11-20T15:28:29;9.70;99.90
34877;DHT22;21086;44.780;17.194;2022-11-20T15:30:57;9.60;99.90
34877;DHT22;21086;44.780;17.194;2022-11-20T15:33:24;9.60;99.90
34877;DHT22;21086;44.780;17.194;2022-11-20T15:35:51;9.60;99.90
34877;DHT22;21086;44.780;17.194;2022-11-20T15:38:18;9.60;99.90
34877;DHT22;21086;44.780;17.194;2022-11-20T15:40:45;9.60;99.90
34877;DHT22;21086;44.780;17.194;2022-11-20T15:43:13;9.70;99.90
34877;DHT22;21086;44.780;17.194;2022-11-20T15:45:50;9.60;99.90
34877;DHT22;21086;44.780;17.194;2022-11-20T15:48:21;9.60;99.90
34877;DHT22;21086;44.780;17.194;2022-11-20T15:51:04;9.70;99.90
34877;DHT22;21086;44.780;17.194;2022-11-20T15:53:33;9.70;99.90
34877;DHT22;21086;44.780;17.194;2022-11-20T15:56:00;9.60;99.90
34877;DHT22;21086;44.780;17.194;2022-11-20T15:58:28;9.50;99.90
34877;DHT22;21086;44.780;17.194;2022-11-20T16:00:55;9.40;99.90
34877;DHT22;21086;44.780;17.194;2022-11-20T16:03:25;9.40;99.90
34877;DHT22;21086;44.780;17.194;2022-11-20T16:06:09;9.50;99.90
34877;DHT22;21086;44.780;17.194;2022-11-20T16:08:36;9.50;99.90
34877;DHT22;21086;44.780;17.194;2022-11-20T16:11:03;9.60;99.90
34877;DHT22;21086;44.780;17.194;2022-11-20T16:13:31;9.60;99.90
34877;DHT22;21086;44.780;17.194;2022-11-20T16:16:43;9.50;99.90
34877;DHT22;21086;44.780;17.194;2022-11-20T16:19:12;9.50;99.90
34877;DHT22;21086;44.780;17.194;2022-11-20T16:21:40;9.40;99.90
34877;DHT22;21086;44.780;17.194;2022-11-20T16:24:11;9.40;99.90
34877;DHT22;21086;44.780;17.194;2022-11-20T16:26:42;8.20;99.90
34877;DHT22;21086;44.780;17.194;2022-11-20T16:29:09;9.40;99.90
34877;DHT22;21086;44.780;17.194;2022-11-20T16:31:37;9.50;99.90
34877;DHT22;21086;44.780;17.194;2022-11-20T16:34:07;9.40;99.90
34877;DHT22;21086;44.780;17.194;2022-11-20T16:36:42;9.40;99.90
34877;DHT22;21086;44.780;17.194;2022-11-20T16:39:10;9.70;99.90
34877;DHT22;21086;44.780;17.194;2022-11-20T16:41:38;9.40;99.90
34877;DHT22;21086;44.780;17.194;2022-11-20T16:44:10;9.30;99.90
34877;DHT22;21086;44.780;17.194;2022-11-20T16:46:41;9.30;99.90
34877;DHT22;21086;44.780;17.194;2022-11-20T16:49:12;9.30;99.90
34877;DHT22;21086;44.780;17.194;2022-11-20T16:51:39;9.20;99.90
34877;DHT22;21086;44.780;17.194;2022-11-20T16:54:08;10.60;99.90
34877;DHT22;21086;44.780;17.194;2022-11-20T16:56:36;9.20;99.90
34877;DHT22;21086;44.780;17.194;2022-11-20T16:59:03;9.10;99.90
34877;DHT22;21086;44.780;17.194;2022-11-20T17:01:31;9.00;99.90
34877;DHT22;21086;44.780;17.194;2022-11-20T17:04:01;9.00;99.90
34877;DHT22;21086;44.780;17.194;2022-11-20T17:06:31;9.00;99.90
34877;DHT22;21086;44.780;17.194;2022-11-20T17:09:00;8.90;99.90
34877;DHT22;21086;44.780;17.194;2022-11-20T17:11:27;10.20;99.90
34877;DHT22;21086;44.780;17.194;2022-11-20T17:13:57;8.80;99.90
34877;DHT22;21086;44.780;17.194;2022-11-20T17:16:35;8.70;99.90
34877;DHT22;21086;44.780;17.194;2022-11-20T17:19:03;8.80;99.90
34877;DHT22;21086;44.780;17.194;2022-11-20T17:21:32;8.70;99.90
34877;DHT22;21086;44.780;17.194;2022-11-20T17:24:03;8.60;99.90
34877;DHT22;21086;44.780;17.194;2022-11-20T17:26:31;8.60;99.90
34877;DHT22;21086;44.780;17.194;2022-11-20T17:29:01;8.70;99.90
34877;DHT22;21086;44.780;17.194;2022-11-20T17:31:33;8.70;99.90
34877;DHT22;21086;44.780;17.194;2022-11-20T17:34:03;8.60;99.90
34877;DHT22;21086;44.780;17.194;2022-11-20T17:36:30;8.80;99.90